Portada
METAR-TAF:

METAR-TAF

Aeropuertos :

Colmenar Viejo, España

latitud: 40-39N, longitud: 003-44W, altitud: -999 m

Observación

El informe se hizo hace 40 minutos, a las 18:00 UTC
Viento 3 kt del sur-sureste
Temperatura 28°C
Humedad 25%
Presión 1020 hPa
Visibilidad 10 km o más
Escasas nubes a una altura de 6000 ft

METAR: LECV 201800Z 15003KT 9999 FEW060 28/06 Q1020

Hora: 20:40 (18:40 UTC)

Pronóstico

El informe se hizo hace 1 hora y 40 minutos, a las 17:00 UTC
Pronóstico válido del 20 a las 18 UTC al 21 a las 03 UTC
Viento 4 kt con dirección variable
Visibilidad 10 km o más
sin nubes por debajo de 1500 m y sin presencia de cumulonimbus.

TAF: LECV 201700Z 2018/2103 VRB04KT CAVOK

Observaciones y pronósticos meteorológicos de más de 4000 aeropuertos (mensajes METAR y TAF).

Los puntos amarillos y rojos representan las estaciones disponibles.

Ponga el ratón en el punto deseado para ver el nombre de la estación.

Haga clic para ver las observaciones y los pronósticos meteorológicos.

Para cambiar el mapa : haga clic en los botones verdes con una cruz de color negro para hacer un zoom, en el botón verde con un guión para alejar o en las flechas verdes para mapas adyacentes.


METAR-TAF: